sensor_id;sensor_type;location;lat;lon;timestamp;temperature;humidity
12870;DHT22;6503;48.572;13.460;2022-09-29T00:01:17;9.30;99.90
12870;DHT22;6503;48.572;13.460;2022-09-29T00:03:44;9.10;99.90
12870;DHT22;6503;48.572;13.460;2022-09-29T00:06:14;9.00;99.90
12870;DHT22;6503;48.572;13.460;2022-09-29T00:08:43;8.90;99.90
12870;DHT22;6503;48.572;13.460;2022-09-29T00:11:12;8.90;99.90
12870;DHT22;6503;48.572;13.460;2022-09-29T00:13:43;8.90;99.90
12870;DHT22;6503;48.572;13.460;2022-09-29T00:16:13;8.90;99.90
12870;DHT22;6503;48.572;13.460;2022-09-29T00:18:40;8.80;99.90
12870;DHT22;6503;48.572;13.460;2022-09-29T00:21:09;8.90;99.90
12870;DHT22;6503;48.572;13.460;2022-09-29T00:23:37;8.80;99.90
12870;DHT22;6503;48.572;13.460;2022-09-29T00:26:10;8.80;99.90
12870;DHT22;6503;48.572;13.460;2022-09-29T00:28:39;8.90;99.90
12870;DHT22;6503;48.572;13.460;2022-09-29T00:31:08;8.90;99.90
12870;DHT22;6503;48.572;13.460;2022-09-29T00:33:37;8.90;99.90
12870;DHT22;6503;48.572;13.460;2022-09-29T00:36:08;9.00;99.90
12870;DHT22;6503;48.572;13.460;2022-09-29T00:38:37;9.00;99.90
12870;DHT22;6503;48.572;13.460;2022-09-29T00:41:07;9.00;99.90
12870;DHT22;6503;48.572;13.460;2022-09-29T00:43:53;9.00;99.90
12870;DHT22;6503;48.572;13.460;2022-09-29T00:46:29;8.90;99.90
12870;DHT22;6503;48.572;13.460;2022-09-29T00:49:02;8.90;99.90
12870;DHT22;6503;48.572;13.460;2022-09-29T00:51:33;8.80;99.90
12870;DHT22;6503;48.572;13.460;2022-09-29T00:54:01;8.90;99.90
12870;DHT22;6503;48.572;13.460;2022-09-29T00:56:30;8.90;99.90
12870;DHT22;6503;48.572;13.460;2022-09-29T00:59:00;8.90;99.90
12870;DHT22;6503;48.572;13.460;2022-09-29T01:01:30;8.90;99.90
12870;DHT22;6503;48.572;13.460;2022-09-29T01:04:01;8.90;99.90
12870;DHT22;6503;48.572;13.460;2022-09-29T01:06:33;8.90;99.90
12870;DHT22;6503;48.572;13.460;2022-09-29T01:09:04;8.90;99.90
12870;DHT22;6503;48.572;13.460;2022-09-29T01:11:35;9.00;99.90
12870;DHT22;6503;48.572;13.460;2022-09-29T01:14:04;9.00;99.90
12870;DHT22;6503;48.572;13.460;2022-09-29T01:16:33;9.00;99.90
12870;DHT22;6503;48.572;13.460;2022-09-29T01:19:04;9.00;99.90
12870;DHT22;6503;48.572;13.460;2022-09-29T01:21:40;8.90;99.90
12870;DHT22;6503;48.572;13.460;2022-09-29T01:24:40;8.90;99.90
12870;DHT22;6503;48.572;13.460;2022-09-29T01:27:21;8.80;99.90
12870;DHT22;6503;48.572;13.460;2022-09-29T01:30:04;8.80;99.90
12870;DHT22;6503;48.572;13.460;2022-09-29T01:35:42;8.80;99.90
12870;DHT22;6503;48.572;13.460;2022-09-29T01:38:25;8.80;99.90
12870;DHT22;6503;48.572;13.460;2022-09-29T01:41:04;8.90;99.90
12870;DHT22;6503;48.572;13.460;2022-09-29T01:43:35;8.90;99.90
12870;DHT22;6503;48.572;13.460;2022-09-29T01:46:05;8.80;99.90
12870;DHT22;6503;48.572;13.460;2022-09-29T01:48:38;8.80;99.90
12870;DHT22;6503;48.572;13.460;2022-09-29T01:51:12;8.80;99.90
12870;DHT22;6503;48.572;13.460;2022-09-29T01:53:44;8.70;99.90
12870;DHT22;6503;48.572;13.460;2022-09-29T01:56:18;8.70;99.90
12870;DHT22;6503;48.572;13.460;2022-09-29T01:58:52;8.70;99.90
12870;DHT22;6503;48.572;13.460;2022-09-29T02:01:22;8.60;99.90
12870;DHT22;6503;48.572;13.460;2022-09-29T02:03:52;8.60;99.90
12870;DHT22;6503;48.572;13.460;2022-09-29T02:06:24;8.50;99.90
12870;DHT22;6503;48.572;13.460;2022-09-29T02:08:54;8.50;99.90
12870;DHT22;6503;48.572;13.460;2022-09-29T02:11:22;8.60;99.90
12870;DHT22;6503;48.572;13.460;2022-09-29T02:13:56;8.60;99.90
12870;DHT22;6503;48.572;13.460;2022-09-29T02:16:28;8.50;99.90
12870;DHT22;6503;48.572;13.460;2022-09-29T02:19:00;8.50;99.90
12870;DHT22;6503;48.572;13.460;2022-09-29T02:21:30;8.50;99.90
12870;DHT22;6503;48.572;13.460;2022-09-29T02:23:57;8.50;99.90
12870;DHT22;6503;48.572;13.460;2022-09-29T02:26:26;8.50;99.90
12870;DHT22;6503;48.572;13.460;2022-09-29T02:28:54;8.50;99.90
12870;DHT22;6503;48.572;13.460;2022-09-29T02:31:22;8.40;99.90
12870;DHT22;6503;48.572;13.460;2022-09-29T02:33:49;8.40;99.90
12870;DHT22;6503;48.572;13.460;2022-09-29T02:36:22;8.40;99.90
12870;DHT22;6503;48.572;13.460;2022-09-29T02:39:00;8.30;99.90
12870;DHT22;6503;48.572;13.460;2022-09-29T02:41:34;8.30;99.90
12870;DHT22;6503;48.572;13.460;2022-09-29T02:44:24;8.20;99.90
12870;DHT22;6503;48.572;13.460;2022-09-29T02:50:18;8.20;99.90
12870;DHT22;6503;48.572;13.460;2022-09-29T02:52:53;8.20;99.90
12870;DHT22;6503;48.572;13.460;2022-09-29T02:55:27;8.20;99.90
12870;DHT22;6503;48.572;13.460;2022-09-29T02:58:00;8.20;99.90
12870;DHT22;6503;48.572;13.460;2022-09-29T03:00:44;8.10;99.90
12870;DHT22;6503;48.572;13.460;2022-09-29T03:03:11;8.20;99.90
12870;DHT22;6503;48.572;13.460;2022-09-29T03:05:39;8.20;99.90
12870;DHT22;6503;48.572;13.460;2022-09-29T03:08:06;8.10;99.90
12870;DHT22;6503;48.572;13.460;2022-09-29T03:10:34;8.10;99.90
12870;DHT22;6503;48.572;13.460;2022-09-29T03:13:01;8.00;99.90
12870;DHT22;6503;48.572;13.460;2022-09-29T03:15:28;8.00;99.90
12870;DHT22;6503;48.572;13.460;2022-09-29T03:17:55;7.90;99.90
12870;DHT22;6503;48.572;13.460;2022-09-29T03:20:23;8.00;99.90
12870;DHT22;6503;48.572;13.460;2022-09-29T03:22:54;7.90;99.90
12870;DHT22;6503;48.572;13.460;2022-09-29T03:25:22;7.90;99.90
12870;DHT22;6503;48.572;13.460;2022-09-29T03:27:51;7.80;99.90
12870;DHT22;6503;48.572;13.460;2022-09-29T03:30:18;7.70;99.90
12870;DHT22;6503;48.572;13.460;2022-09-29T03:32:47;7.70;99.90
12870;DHT22;6503;48.572;13.460;2022-09-29T03:35:14;7.70;99.90
12870;DHT22;6503;48.572;13.460;2022-09-29T03:37:41;7.70;99.90
12870;DHT22;6503;48.572;13.460;2022-09-29T03:40:09;7.70;99.90
12870;DHT22;6503;48.572;13.460;2022-09-29T03:42:36;7.70;99.90
12870;DHT22;6503;48.572;13.460;2022-09-29T03:45:06;7.80;99.90
12870;DHT22;6503;48.572;13.460;2022-09-29T03:47:35;7.80;99.90
12870;DHT22;6503;48.572;13.460;2022-09-29T03:50:02;7.80;99.90
12870;DHT22;6503;48.572;13.460;2022-09-29T03:52:29;7.80;99.90
12870;DHT22;6503;48.572;13.460;2022-09-29T03:54:56;7.80;99.90
12870;DHT22;6503;48.572;13.460;2022-09-29T03:57:23;7.80;99.90
12870;DHT22;6503;48.572;13.460;2022-09-29T03:59:50;7.80;99.90
12870;DHT22;6503;48.572;13.460;2022-09-29T04:02:19;7.70;99.90
12870;DHT22;6503;48.572;13.460;2022-09-29T04:04:46;7.70;99.90
12870;DHT22;6503;48.572;13.460;2022-09-29T04:07:13;7.70;99.90
12870;DHT22;6503;48.572;13.460;2022-09-29T04:09:41;7.80;99.90
12870;DHT22;6503;48.572;13.460;2022-09-29T04:12:08;7.80;99.90
12870;DHT22;6503;48.572;13.460;2022-09-29T04:14:35;7.80;99.90
12870;DHT22;6503;48.572;13.460;2022-09-29T04:17:02;7.80;99.90
12870;DHT22;6503;48.572;13.460;2022-09-29T04:19:30;7.80;99.90
12870;DHT22;6503;48.572;13.460;2022-09-29T04:21:57;7.80;99.90
12870;DHT22;6503;48.572;13.460;2022-09-29T04:24:24;7.80;99.90
12870;DHT22;6503;48.572;13.460;2022-09-29T04:26:51;7.80;99.90
12870;DHT22;6503;48.572;13.460;2022-09-29T04:29:18;7.80;99.90
12870;DHT22;6503;48.572;13.460;2022-09-29T04:31:46;7.70;99.90
12870;DHT22;6503;48.572;13.460;2022-09-29T04:34:13;7.80;99.90
12870;DHT22;6503;48.572;13.460;2022-09-29T04:36:41;7.80;99.90
12870;DHT22;6503;48.572;13.460;2022-09-29T04:39:08;7.70;99.90
12870;DHT22;6503;48.572;13.460;2022-09-29T04:41:35;7.80;99.90
12870;DHT22;6503;48.572;13.460;2022-09-29T04:44:04;7.90;99.90
12870;DHT22;6503;48.572;13.460;2022-09-29T04:46:31;7.80;99.90
12870;DHT22;6503;48.572;13.460;2022-09-29T04:48:59;7.80;99.90
12870;DHT22;6503;48.572;13.460;2022-09-29T04:51:25;7.90;99.90
12870;DHT22;6503;48.572;13.460;2022-09-29T04:53:54;7.90;99.90
12870;DHT22;6503;48.572;13.460;2022-09-29T04:56:21;7.90;99.90
12870;DHT22;6503;48.572;13.460;2022-09-29T04:58:48;7.90;99.90
12870;DHT22;6503;48.572;13.460;2022-09-29T05:01:15;7.90;99.90
12870;DHT22;6503;48.572;13.460;2022-09-29T05:03:42;7.90;99.90
12870;DHT22;6503;48.572;13.460;2022-09-29T05:06:10;7.90;99.90
12870;DHT22;6503;48.572;13.460;2022-09-29T05:08:40;7.80;99.90
12870;DHT22;6503;48.572;13.460;2022-09-29T05:11:13;7.80;99.90
12870;DHT22;6503;48.572;13.460;2022-09-29T05:13:40;7.80;99.90
12870;DHT22;6503;48.572;13.460;2022-09-29T05:16:07;7.80;99.90
12870;DHT22;6503;48.572;13.460;2022-09-29T05:18:34;7.90;99.90
12870;DHT22;6503;48.572;13.460;2022-09-29T05:21:03;7.80;99.90
12870;DHT22;6503;48.572;13.460;2022-09-29T05:23:31;7.80;99.90
12870;DHT22;6503;48.572;13.460;2022-09-29T05:26:01;7.80;99.90
12870;DHT22;6503;48.572;13.460;2022-09-29T05:28:33;7.80;99.90
12870;DHT22;6503;48.572;13.460;2022-09-29T05:31:00;7.70;99.90
12870;DHT22;6503;48.572;13.460;2022-09-29T05:33:34;7.70;99.90
12870;DHT22;6503;48.572;13.460;2022-09-29T05:36:03;7.70;99.90
12870;DHT22;6503;48.572;13.460;2022-09-29T05:38:31;7.60;99.90
12870;DHT22;6503;48.572;13.460;2022-09-29T05:41:03;7.70;99.90
12870;DHT22;6503;48.572;13.460;2022-09-29T05:43:32;7.70;99.90
12870;DHT22;6503;48.572;13.460;2022-09-29T05:46:00;7.70;99.90
12870;DHT22;6503;48.572;13.460;2022-09-29T05:48:30;7.60;99.90
12870;DHT22;6503;48.572;13.460;2022-09-29T05:51:05;7.60;99.90
12870;DHT22;6503;48.572;13.460;2022-09-29T05:53:34;7.60;99.90
12870;DHT22;6503;48.572;13.460;2022-09-29T05:56:04;7.70;99.90
12870;DHT22;6503;48.572;13.460;2022-09-29T05:58:33;7.70;99.90
12870;DHT22;6503;48.572;13.460;2022-09-29T06:01:06;7.70;99.90
12870;DHT22;6503;48.572;13.460;2022-09-29T06:03:39;7.80;99.90
12870;DHT22;6503;48.572;13.460;2022-09-29T06:06:07;7.70;99.90
12870;DHT22;6503;48.572;13.460;2022-09-29T06:08:42;7.70;99.90
12870;DHT22;6503;48.572;13.460;2022-09-29T06:11:18;7.70;99.90
12870;DHT22;6503;48.572;13.460;2022-09-29T06:13:50;7.60;99.90
12870;DHT22;6503;48.572;13.460;2022-09-29T06:16:18;7.60;99.90
12870;DHT22;6503;48.572;13.460;2022-09-29T06:18:48;7.70;99.90
12870;DHT22;6503;48.572;13.460;2022-09-29T06:21:21;7.80;99.90
12870;DHT22;6503;48.572;13.460;2022-09-29T06:23:52;7.80;99.90
12870;DHT22;6503;48.572;13.460;2022-09-29T06:26:23;7.80;99.90
12870;DHT22;6503;48.572;13.460;2022-09-29T06:28:53;7.90;99.90
12870;DHT22;6503;48.572;13.460;2022-09-29T06:31:23;7.90;99.90
12870;DHT22;6503;48.572;13.460;2022-09-29T06:33:56;7.90;99.90
12870;DHT22;6503;48.572;13.460;2022-09-29T06:36:26;7.90;99.90
12870;DHT22;6503;48.572;13.460;2022-09-29T06:39:14;7.90;99.90
12870;DHT22;6503;48.572;13.460;2022-09-29T06:41:45;8.00;99.90
12870;DHT22;6503;48.572;13.460;2022-09-29T06:44:20;8.00;99.90
12870;DHT22;6503;48.572;13.460;2022-09-29T06:46:49;8.00;99.90
12870;DHT22;6503;48.572;13.460;2022-09-29T06:49:17;8.10;99.90
12870;DHT22;6503;48.572;13.460;2022-09-29T06:51:46;8.10;99.90
12870;DHT22;6503;48.572;13.460;2022-09-29T06:54:18;8.10;99.90
12870;DHT22;6503;48.572;13.460;2022-09-29T06:56:47;8.20;99.90
12870;DHT22;6503;48.572;13.460;2022-09-29T06:59:22;8.20;99.90
12870;DHT22;6503;48.572;13.460;2022-09-29T07:02:10;8.30;99.90
12870;DHT22;6503;48.572;13.460;2022-09-29T07:08:11;8.50;99.90
12870;DHT22;6503;48.572;13.460;2022-09-29T07:10:44;8.40;99.90
12870;DHT22;6503;48.572;13.460;2022-09-29T07:13:15;8.40;99.90
12870;DHT22;6503;48.572;13.460;2022-09-29T07:18:50;8.80;99.90
12870;DHT22;6503;48.572;13.460;2022-09-29T07:21:20;8.90;99.90
12870;DHT22;6503;48.572;13.460;2022-09-29T07:23:47;8.80;99.90
12870;DHT22;6503;48.572;13.460;2022-09-29T07:26:18;9.00;99.90
12870;DHT22;6503;48.572;13.460;2022-09-29T07:28:47;9.20;99.90
12870;DHT22;6503;48.572;13.460;2022-09-29T07:31:26;9.40;99.90
12870;DHT22;6503;48.572;13.460;2022-09-29T07:34:08;9.60;99.90
12870;DHT22;6503;48.572;13.460;2022-09-29T07:36:35;9.60;99.90
12870;DHT22;6503;48.572;13.460;2022-09-29T07:39:06;9.60;99.90
12870;DHT22;6503;48.572;13.460;2022-09-29T07:41:36;9.70;99.90
12870;DHT22;6503;48.572;13.460;2022-09-29T07:44:16;9.70;99.90
12870;DHT22;6503;48.572;13.460;2022-09-29T07:46:49;9.70;99.90
12870;DHT22;6503;48.572;13.460;2022-09-29T07:49:18;9.70;99.90
12870;DHT22;6503;48.572;13.460;2022-09-29T07:51:46;9.70;99.90
12870;DHT22;6503;48.572;13.460;2022-09-29T07:54:14;9.70;99.90
12870;DHT22;6503;48.572;13.460;2022-09-29T07:56:45;9.80;99.90
12870;DHT22;6503;48.572;13.460;2022-09-29T07:59:12;9.90;99.90
12870;DHT22;6503;48.572;13.460;2022-09-29T08:01:40;10.10;99.90
12870;DHT22;6503;48.572;13.460;2022-09-29T08:04:08;10.20;99.90
12870;DHT22;6503;48.572;13.460;2022-09-29T08:06:38;10.30;99.90
12870;DHT22;6503;48.572;13.460;2022-09-29T08:09:07;10.20;99.90
12870;DHT22;6503;48.572;13.460;2022-09-29T08:11:36;10.00;99.90
12870;DHT22;6503;48.572;13.460;2022-09-29T08:14:05;9.90;99.90
12870;DHT22;6503;48.572;13.460;2022-09-29T08:16:33;9.90;99.90
12870;DHT22;6503;48.572;13.460;2022-09-29T08:19:02;10.10;99.90
12870;DHT22;6503;48.572;13.460;2022-09-29T08:21:31;10.30;99.90
12870;DHT22;6503;48.572;13.460;2022-09-29T08:24:04;10.40;99.90
12870;DHT22;6503;48.572;13.460;2022-09-29T08:26:33;10.60;99.90
12870;DHT22;6503;48.572;13.460;2022-09-29T08:29:02;10.80;99.90
12870;DHT22;6503;48.572;13.460;2022-09-29T08:31:29;11.00;99.90
12870;DHT22;6503;48.572;13.460;2022-09-29T08:33:57;11.20;99.90
12870;DHT22;6503;48.572;13.460;2022-09-29T08:36:25;11.40;99.90
12870;DHT22;6503;48.572;13.460;2022-09-29T08:38:56;11.60;99.90
12870;DHT22;6503;48.572;13.460;2022-09-29T08:41:56;11.80;99.90
12870;DHT22;6503;48.572;13.460;2022-09-29T08:47:35;12.00;99.90
12870;DHT22;6503;48.572;13.460;2022-09-29T08:50:27;12.20;99.90
12870;DHT22;6503;48.572;13.460;2022-09-29T08:53:07;12.40;99.90
12870;DHT22;6503;48.572;13.460;2022-09-29T08:55:50;12.50;99.90
12870;DHT22;6503;48.572;13.460;2022-09-29T09:02:07;12.60;99.90
12870;DHT22;6503;48.572;13.460;2022-09-29T09:09:44;12.50;99.90
12870;DHT22;6503;48.572;13.460;2022-09-29T09:13:38;12.50;99.90
12870;DHT22;6503;48.572;13.460;2022-09-29T09:23:07;12.60;99.90
12870;DHT22;6503;48.572;13.460;2022-09-29T09:25:45;12.70;99.90
12870;DHT22;6503;48.572;13.460;2022-09-29T09:28:18;12.70;99.90
12870;DHT22;6503;48.572;13.460;2022-09-29T09:31:19;12.90;99.90
12870;DHT22;6503;48.572;13.460;2022-09-29T09:34:36;13.10;99.90
12870;DHT22;6503;48.572;13.460;2022-09-29T09:40:38;13.40;99.90
12870;DHT22;6503;48.572;13.460;2022-09-29T09:43:36;13.30;99.90
12870;DHT22;6503;48.572;13.460;2022-09-29T09:49:21;13.40;99.90
12870;DHT22;6503;48.572;13.460;2022-09-29T09:51:55;13.50;99.90
12870;DHT22;6503;48.572;13.460;2022-09-29T09:54:27;13.60;99.90
12870;DHT22;6503;48.572;13.460;2022-09-29T10:00:03;14.00;99.90
12870;DHT22;6503;48.572;13.460;2022-09-29T10:02:31;14.10;99.90
12870;DHT22;6503;48.572;13.460;2022-09-29T10:05:09;14.10;99.90
12870;DHT22;6503;48.572;13.460;2022-09-29T10:07:37;14.30;99.90
12870;DHT22;6503;48.572;13.460;2022-09-29T10:10:14;14.40;99.90
12870;DHT22;6503;48.572;13.460;2022-09-29T10:12:45;14.30;99.90
12870;DHT22;6503;48.572;13.460;2022-09-29T10:15:19;14.30;99.90
12870;DHT22;6503;48.572;13.460;2022-09-29T10:17:57;14.40;99.90
12870;DHT22;6503;48.572;13.460;2022-09-29T10:23:35;14.70;99.90
12870;DHT22;6503;48.572;13.460;2022-09-29T10:26:12;15.00;99.90
12870;DHT22;6503;48.572;13.460;2022-09-29T10:28:43;15.10;99.90
12870;DHT22;6503;48.572;13.460;2022-09-29T10:31:23;14.90;99.90
12870;DHT22;6503;48.572;13.460;2022-09-29T10:33:58;14.70;99.90
12870;DHT22;6503;48.572;13.460;2022-09-29T10:36:46;14.60;99.90
12870;DHT22;6503;48.572;13.460;2022-09-29T10:39:30;14.70;99.90
12870;DHT22;6503;48.572;13.460;2022-09-29T10:41:57;14.90;99.90
12870;DHT22;6503;48.572;13.460;2022-09-29T10:44:31;15.20;99.90
12870;DHT22;6503;48.572;13.460;2022-09-29T10:46:58;15.20;99.90
12870;DHT22;6503;48.572;13.460;2022-09-29T10:49:27;15.30;99.90
12870;DHT22;6503;48.572;13.460;2022-09-29T10:51:59;15.50;99.90
12870;DHT22;6503;48.572;13.460;2022-09-29T10:54:30;15.60;99.90
12870;DHT22;6503;48.572;13.460;2022-09-29T10:56:58;15.80;99.90
12870;DHT22;6503;48.572;13.460;2022-09-29T10:59:28;15.90;99.90
12870;DHT22;6503;48.572;13.460;2022-09-29T11:01:58;15.80;99.90
12870;DHT22;6503;48.572;13.460;2022-09-29T11:04:29;15.80;99.90
12870;DHT22;6503;48.572;13.460;2022-09-29T11:07:04;16.00;99.90
12870;DHT22;6503;48.572;13.460;2022-09-29T11:09:37;16.10;99.90
12870;DHT22;6503;48.572;13.460;2022-09-29T11:12:11;16.20;99.90
12870;DHT22;6503;48.572;13.460;2022-09-29T11:14:51;16.20;99.90
12870;DHT22;6503;48.572;13.460;2022-09-29T11:17:21;16.30;99.90
12870;DHT22;6503;48.572;13.460;2022-09-29T11:19:52;16.30;99.90
12870;DHT22;6503;48.572;13.460;2022-09-29T11:22:50;16.20;99.90
12870;DHT22;6503;48.572;13.460;2022-09-29T11:26:03;16.20;99.90
12870;DHT22;6503;48.572;13.460;2022-09-29T11:28:56;16.20;99.90
12870;DHT22;6503;48.572;13.460;2022-09-29T11:31:38;16.40;99.90
12870;DHT22;6503;48.572;13.460;2022-09-29T11:37:16;16.70;99.90
12870;DHT22;6503;48.572;13.460;2022-09-29T11:39:46;16.70;99.90
12870;DHT22;6503;48.572;13.460;2022-09-29T11:42:30;16.50;99.90
12870;DHT22;6503;48.572;13.460;2022-09-29T11:45:03;16.10;99.90
12870;DHT22;6503;48.572;13.460;2022-09-29T11:50:35;15.90;99.90
12870;DHT22;6503;48.572;13.460;2022-09-29T11:53:15;16.00;99.90
12870;DHT22;6503;48.572;13.460;2022-09-29T11:55:51;15.90;99.90
12870;DHT22;6503;48.572;13.460;2022-09-29T11:58:36;15.90;99.90
12870;DHT22;6503;48.572;13.460;2022-09-29T12:01:20;16.00;99.90
12870;DHT22;6503;48.572;13.460;2022-09-29T12:04:02;16.00;99.90
12870;DHT22;6503;48.572;13.460;2022-09-29T12:06:51;16.10;99.90
12870;DHT22;6503;48.572;13.460;2022-09-29T12:09:32;16.10;99.90
12870;DHT22;6503;48.572;13.460;2022-09-29T12:12:07;16.00;99.90
12870;DHT22;6503;48.572;13.460;2022-09-29T12:14:42;16.00;99.90
12870;DHT22;6503;48.572;13.460;2022-09-29T12:17:12;15.90;99.90
12870;DHT22;6503;48.572;13.460;2022-09-29T12:19:44;15.90;99.90
12870;DHT22;6503;48.572;13.460;2022-09-29T12:22:17;16.00;99.90
12870;DHT22;6503;48.572;13.460;2022-09-29T12:24:46;16.00;99.90
12870;DHT22;6503;48.572;13.460;2022-09-29T12:27:18;16.00;99.90
12870;DHT22;6503;48.572;13.460;2022-09-29T12:29:51;16.00;99.90
12870;DHT22;6503;48.572;13.460;2022-09-29T12:32:22;16.00;99.90
12870;DHT22;6503;48.572;13.460;2022-09-29T12:34:54;15.90;99.90
12870;DHT22;6503;48.572;13.460;2022-09-29T12:37:26;15.80;99.90
12870;DHT22;6503;48.572;13.460;2022-09-29T12:40:02;15.70;99.90
12870;DHT22;6503;48.572;13.460;2022-09-29T12:42:49;15.80;99.90
12870;DHT22;6503;48.572;13.460;2022-09-29T12:45:24;15.80;99.90
12870;DHT22;6503;48.572;13.460;2022-09-29T12:47:58;16.00;99.90
12870;DHT22;6503;48.572;13.460;2022-09-29T12:50:30;16.40;99.90
12870;DHT22;6503;48.572;13.460;2022-09-29T12:53:02;16.70;99.90
12870;DHT22;6503;48.572;13.460;2022-09-29T12:55:43;16.80;99.90
12870;DHT22;6503;48.572;13.460;2022-09-29T12:58:18;16.70;99.90
12870;DHT22;6503;48.572;13.460;2022-09-29T13:00:50;16.40;99.90
12870;DHT22;6503;48.572;13.460;2022-09-29T13:06:51;16.10;99.90
12870;DHT22;6503;48.572;13.460;2022-09-29T13:09:37;16.10;99.90
12870;DHT22;6503;48.572;13.460;2022-09-29T13:12:27;16.00;99.90
12870;DHT22;6503;48.572;13.460;2022-09-29T13:15:21;15.90;99.90
12870;DHT22;6503;48.572;13.460;2022-09-29T13:17:56;15.80;99.90
12870;DHT22;6503;48.572;13.460;2022-09-29T13:20:41;15.70;99.90
12870;DHT22;6503;48.572;13.460;2022-09-29T13:23:24;15.60;99.90
12870;DHT22;6503;48.572;13.460;2022-09-29T13:26:16;15.60;99.90
12870;DHT22;6503;48.572;13.460;2022-09-29T13:28:50;15.50;99.90
12870;DHT22;6503;48.572;13.460;2022-09-29T13:31:21;15.40;99.90
12870;DHT22;6503;48.572;13.460;2022-09-29T13:33:53;15.40;99.90
12870;DHT22;6503;48.572;13.460;2022-09-29T13:36:22;15.30;99.90
12870;DHT22;6503;48.572;13.460;2022-09-29T13:38:54;15.00;99.90
12870;DHT22;6503;48.572;13.460;2022-09-29T13:41:34;14.80;99.90
12870;DHT22;6503;48.572;13.460;2022-09-29T13:44:18;14.70;99.90
12870;DHT22;6503;48.572;13.460;2022-09-29T13:46:51;14.90;99.90
12870;DHT22;6503;48.572;13.460;2022-09-29T13:49:24;14.90;99.90
12870;DHT22;6503;48.572;13.460;2022-09-29T13:51:57;14.80;99.90
12870;DHT22;6503;48.572;13.460;2022-09-29T13:54:37;14.90;99.90
12870;DHT22;6503;48.572;13.460;2022-09-29T13:57:27;14.90;99.90
12870;DHT22;6503;48.572;13.460;2022-09-29T14:00:21;14.80;99.90
12870;DHT22;6503;48.572;13.460;2022-09-29T14:03:23;14.70;99.90
12870;DHT22;6503;48.572;13.460;2022-09-29T14:05:54;14.70;99.90
12870;DHT22;6503;48.572;13.460;2022-09-29T14:08:28;14.80;99.90
12870;DHT22;6503;48.572;13.460;2022-09-29T14:11:11;14.90;99.90
12870;DHT22;6503;48.572;13.460;2022-09-29T14:13:44;14.80;99.90
12870;DHT22;6503;48.572;13.460;2022-09-29T14:16:27;14.90;99.90
12870;DHT22;6503;48.572;13.460;2022-09-29T14:19:01;14.90;99.90
12870;DHT22;6503;48.572;13.460;2022-09-29T14:21:48;14.80;99.90
12870;DHT22;6503;48.572;13.460;2022-09-29T14:24:41;14.70;99.90
12870;DHT22;6503;48.572;13.460;2022-09-29T14:27:28;14.60;99.90
12870;DHT22;6503;48.572;13.460;2022-09-29T14:30:17;14.60;99.90
12870;DHT22;6503;48.572;13.460;2022-09-29T14:32:52;14.40;99.90
12870;DHT22;6503;48.572;13.460;2022-09-29T14:35:26;14.30;99.90
12870;DHT22;6503;48.572;13.460;2022-09-29T14:38:02;14.30;99.90
12870;DHT22;6503;48.572;13.460;2022-09-29T14:40:31;14.20;99.90
12870;DHT22;6503;48.572;13.460;2022-09-29T14:43:10;14.10;99.90
12870;DHT22;6503;48.572;13.460;2022-09-29T14:45:49;13.90;99.90
12870;DHT22;6503;48.572;13.460;2022-09-29T14:48:43;13.70;99.90
12870;DHT22;6503;48.572;13.460;2022-09-29T14:51:35;13.70;99.90
12870;DHT22;6503;48.572;13.460;2022-09-29T14:54:35;13.60;99.90
12870;DHT22;6503;48.572;13.460;2022-09-29T14:57:15;13.70;99.90
12870;DHT22;6503;48.572;13.460;2022-09-29T14:59:57;13.70;99.90
12870;DHT22;6503;48.572;13.460;2022-09-29T15:02:28;13.70;99.90
12870;DHT22;6503;48.572;13.460;2022-09-29T15:04:56;13.60;99.90
12870;DHT22;6503;48.572;13.460;2022-09-29T15:07:25;13.60;99.90
12870;DHT22;6503;48.572;13.460;2022-09-29T15:09:54;13.70;99.90
12870;DHT22;6503;48.572;13.460;2022-09-29T15:12:22;13.70;99.90
12870;DHT22;6503;48.572;13.460;2022-09-29T15:14:52;13.70;99.90
12870;DHT22;6503;48.572;13.460;2022-09-29T15:17:28;13.60;99.90
12870;DHT22;6503;48.572;13.460;2022-09-29T15:20:00;13.60;99.90
12870;DHT22;6503;48.572;13.460;2022-09-29T15:22:57;13.60;99.90
12870;DHT22;6503;48.572;13.460;2022-09-29T15:25:29;13.60;99.90
12870;DHT22;6503;48.572;13.460;2022-09-29T15:28:00;13.60;99.90
12870;DHT22;6503;48.572;13.460;2022-09-29T15:30:30;13.60;99.90
12870;DHT22;6503;48.572;13.460;2022-09-29T15:33:14;13.60;99.90
12870;DHT22;6503;48.572;13.460;2022-09-29T15:35:45;13.50;99.90
12870;DHT22;6503;48.572;13.460;2022-09-29T15:38:26;13.40;99.90
12870;DHT22;6503;48.572;13.460;2022-09-29T15:40:58;13.40;99.90
12870;DHT22;6503;48.572;13.460;2022-09-29T15:43:27;13.40;99.90
12870;DHT22;6503;48.572;13.460;2022-09-29T15:45:58;13.30;99.90
12870;DHT22;6503;48.572;13.460;2022-09-29T15:48:25;13.40;99.90
12870;DHT22;6503;48.572;13.460;2022-09-29T15:50:54;13.40;99.90
12870;DHT22;6503;48.572;13.460;2022-09-29T15:53:24;13.30;99.90
12870;DHT22;6503;48.572;13.460;2022-09-29T15:55:52;13.20;99.90
12870;DHT22;6503;48.572;13.460;2022-09-29T15:58:34;13.20;99.90
12870;DHT22;6503;48.572;13.460;2022-09-29T16:01:05;13.10;99.90
12870;DHT22;6503;48.572;13.460;2022-09-29T16:03:37;13.10;99.90
12870;DHT22;6503;48.572;13.460;2022-09-29T16:06:12;13.00;99.90
12870;DHT22;6503;48.572;13.460;2022-09-29T16:08:44;13.00;99.90
12870;DHT22;6503;48.572;13.460;2022-09-29T16:11:19;13.00;99.90
12870;DHT22;6503;48.572;13.460;2022-09-29T16:13:49;13.00;99.90
12870;DHT22;6503;48.572;13.460;2022-09-29T16:16:25;13.00;99.90
12870;DHT22;6503;48.572;13.460;2022-09-29T16:18:57;13.00;99.90
12870;DHT22;6503;48.572;13.460;2022-09-29T16:21:32;12.90;99.90
12870;DHT22;6503;48.572;13.460;2022-09-29T16:24:13;12.90;99.90
12870;DHT22;6503;48.572;13.460;2022-09-29T16:26:45;12.90;99.90
12870;DHT22;6503;48.572;13.460;2022-09-29T16:29:30;13.00;99.90
12870;DHT22;6503;48.572;13.460;2022-09-29T16:31:59;12.90;99.90
12870;DHT22;6503;48.572;13.460;2022-09-29T16:34:29;12.90;99.90
12870;DHT22;6503;48.572;13.460;2022-09-29T16:36:59;12.90;99.90
12870;DHT22;6503;48.572;13.460;2022-09-29T16:39:28;12.90;99.90
12870;DHT22;6503;48.572;13.460;2022-09-29T16:41:58;12.70;99.90
12870;DHT22;6503;48.572;13.460;2022-09-29T16:44:29;12.80;99.90
12870;DHT22;6503;48.572;13.460;2022-09-29T16:46:59;12.80;99.90
12870;DHT22;6503;48.572;13.460;2022-09-29T16:49:28;12.80;99.90
12870;DHT22;6503;48.572;13.460;2022-09-29T16:51:58;12.90;99.90
12870;DHT22;6503;48.572;13.460;2022-09-29T16:54:29;12.90;99.90
12870;DHT22;6503;48.572;13.460;2022-09-29T16:57:18;12.80;99.90
12870;DHT22;6503;48.572;13.460;2022-09-29T16:59:49;12.70;99.90
12870;DHT22;6503;48.572;13.460;2022-09-29T17:02:18;12.60;99.90
12870;DHT22;6503;48.572;13.460;2022-09-29T17:04:47;12.60;99.90
12870;DHT22;6503;48.572;13.460;2022-09-29T17:07:14;12.60;99.90
12870;DHT22;6503;48.572;13.460;2022-09-29T17:09:44;12.60;99.90
12870;DHT22;6503;48.572;13.460;2022-09-29T17:12:14;12.70;99.90